Main page
METAR-TAF:

METAR-TAF

Airports :

Nottingham Leicester Derby, England

East Midlands Airport

latitude: 52-50N, longitude: 001-20W, elevation: 94 m

Current weather observation

The report was made 32 minutes ago, at 17:20 UTC
Wind 4 kt from the West/Southwest, varying between South/Southwest and West
Temperature 11°C
Humidity 62%
Pressure 1015 hPa
Visibility 10 km or more
Scattered clouds at a height of 3500 ft

METAR: EGNX 281720Z 24004KT 210V270 9999 SCT035 11/04 Q1015

Time: 18:52 (17:52 UTC)

Forecast

The report was made 50 minutes ago, at 17:02 UTC
Forecast valid from 28 at 18 UTC to 29 at 18 UTC
Wind 3 kt from variable directions
Visibility 10 km or more
Scattered clouds at a height of 3000 ft
Probability 30%
from 29 at 03 UTC to 29 at 09 UTC
Visibility: 8000 m
Broken clouds at a height of 1000 ft
Becoming
from 29 at 06 UTC to 29 at 09 UTC
Wind 10 kt from the South/Southwest

TAF: EGNX 281702Z 2818/2918 VRB03KT 9999 SCT030 PROB30 2903/2909 8000 BKN010 BECMG 2906/2909 20010KT

Weather observations and forecasts of more than 4000 airports (METAR and TAF reports).

The available stations are represented by yellow and red dots on the map.

Hover mouse over dot to see the name of the station.

Then click to see weather observations and forecasts.

To change the map : click on the green buttons with a black cross to zoom in, on the green button with a dash to zoom out, or on the green arrows for adjacent maps.


METAR-TAF: